• Join FlightAware (Why Join?)
  • Login
  • US Flag 
12:24PM EDT


 

Airport Tracker/Info


-or-


 

Live Flight TrackerFlight Track Log ✈ N172SS ✈ 28-Apr-2013 ✈ KMLI - KRPJ

Flight Track Log - Related Links

Times and Time Zones

All times are in EDT time to prevent confusion due to time zone crossing. See the N172SS flight status page for this flight to view local times or setup timezone preferences in your user account.

Time Position Orientation Groundspeed Altitude Reporting Facility
EDT Latitude Longitude Course Direction KTS MPH feet Rate Location/Type
08:03PM 41.4903 -90.5319 78° East 87 100 3,100  Level Chicago Center
08:04PM 41.5011 -90.4978 67° East 89 102 3,600 480 Climbing Chicago Center
08:05PM 41.5119 -90.4703 62° Northeast 89 102 4,100 480 Climbing Chicago Center
08:06PM 41.5301 -90.3215 48° Northeast  Level FlightAware Approximate
08:06PM 41.5203 -90.4469 64° Northeast 83 96 4,700  Level Chicago Center
08:07PM 41.5452 -90.2909 58° Northeast  Level FlightAware Approximate
08:07PM 41.5331 -90.4172 60° Northeast 83 96 5,000  Level Chicago Center
08:08PM 41.5486 -90.3847 57° Northeast 91 105 5,100  Climbing Chicago Center
08:09PM 41.5703 -90.3450 54° Northeast 100 115 5,000 -120 Descending Chicago Center
08:10PM 41.5853 -90.3100 60° Northeast 106 122 4,900 -60 Descending Chicago Center
08:11PM 41.5956 -90.2728 70° East 106 122 4,900  Level Chicago Center
08:12PM 41.6075 -90.2397 64° Northeast 106 122 4,900 -60 Level Chicago Center
08:13PM 41.6211 -90.2075 61° Northeast 101 116 4,800  Descending Chicago Center
08:14PM 41.6339 -90.1589 71° East 113 130 4,900  Climbing Chicago Center
08:15PM 41.6464 -90.1203 67° East 118 136 4,900  Level Chicago Center
08:16PM 41.6653 -90.0853 54° Northeast 109 125 4,900 -60 Level Chicago Center
08:17PM 41.6803 -90.0519 59° Northeast 104 120 4,800 -60 Descending Chicago Center
08:18PM 41.6917 -90.0142 68° East 105 121 4,800  Level Chicago Center
08:19PM 41.7053 -89.9775 64° Northeast 108 124 4,900  Climbing Chicago Center
08:20PM 41.7253 -89.9447 51° Northeast 111 128 4,900  Level Chicago Center
08:21PM 41.7411 -89.9114 58° Northeast 109 125 4,900  Level Chicago Center
08:22PM 41.7328 -89.8633 103° East 107 123 4,900  Level Chicago Center
08:23PM 41.7375 -89.8239 81° East 108 124 5,000  Climbing Chicago Center
08:24PM 41.7469 -89.7864 71° East 107 123 5,000  Level Chicago Center
08:25PM 41.7569 -89.7494 70° East 106 122 5,000 -120 Level Chicago Center
08:26PM 41.7661 -89.7119 72° East 105 121 4,800 -120 Descending Chicago Center
08:28PM 41.7764 -89.6658 73° East 108 124 4,800  Level Chicago Center
08:29PM 41.7758 -89.6264 91° East 107 123 4,800  Level Chicago Center
08:30PM 41.7794 -89.5853 83° East 110 127 4,900  Climbing Chicago Center
08:31PM 41.7906 -89.5494 67° East 106 122 4,900 -60 Level Chicago Center
08:32PM 41.7961 -89.5086 80° East 110 127 4,800  Descending Chicago Center
08:33PM 41.8069 -89.4617 73° East 110 127 4,900  Climbing Chicago Center
08:34PM 41.8150 -89.4233 74° East 108 124 4,900  Level Chicago Center
08:35PM 41.8242 -89.3814 74° East 109 125 4,900  Level Chicago Center